createdAt,value
2023-03-26T00:07:51.708Z,2.87
2023-03-26T00:12:53.970Z,2.97
2023-03-26T00:17:56.587Z,2.40
2023-03-26T00:23:01.509Z,2.63
2023-03-26T00:28:03.941Z,2.45
2023-03-26T00:33:07.809Z,2.17
2023-03-26T00:38:10.811Z,2.17
2023-03-26T00:43:22.785Z,2.97
2023-03-26T00:48:34.482Z,2.13
2023-03-26T00:53:48.009Z,1.90
2023-03-26T00:58:50.456Z,2.30
2023-03-26T01:05:34.912Z,2.28
2023-03-26T01:10:38.820Z,2.30
2023-03-26T01:15:42.474Z,2.13
2023-03-26T01:20:49.806Z,2.17
2023-03-26T01:26:04.890Z,3.60
2023-03-26T01:31:12.495Z,3.47
2023-03-26T01:36:27.374Z,2.80
2023-03-26T01:41:43.716Z,3.13
2023-03-26T01:46:47.924Z,2.95
2023-03-26T01:51:56.594Z,3.17
2023-03-26T01:57:20.795Z,3.08
2023-03-26T02:02:30.204Z,3.08
2023-03-26T02:08:02.653Z,3.30
2023-03-26T02:13:09.245Z,3.00
2023-03-26T02:18:13.441Z,3.67
2023-03-26T02:23:15.452Z,3.90
2023-03-26T02:33:23.899Z,3.30
2023-03-26T02:38:27.126Z,4.20
2023-03-26T02:43:33.092Z,3.78
2023-03-26T02:48:36.371Z,3.50
2023-03-26T02:53:53.816Z,3.53
2023-03-26T02:59:04.612Z,3.35
2023-03-26T03:04:10.346Z,3.40
2023-03-26T03:09:13.024Z,3.22
2023-03-26T03:14:34.936Z,3.55
2023-03-26T03:19:37.851Z,3.58
2023-03-26T03:24:40.045Z,3.47
2023-03-26T03:29:42.511Z,3.53
2023-03-26T03:35:11.774Z,4.10
2023-03-26T03:40:15.932Z,3.15
2023-03-26T03:45:19.592Z,2.70
2023-03-26T03:50:27.628Z,3.30
2023-03-26T03:55:53.402Z,3.10
2023-03-26T04:01:15.040Z,3.25
2023-03-26T04:06:39.885Z,3.03
2023-03-26T04:11:52.882Z,3.53
2023-03-26T04:37:41.397Z,2.78
2023-03-26T04:42:50.934Z,3.28
2023-03-26T04:48:14.454Z,3.45
2023-03-26T04:53:26.908Z,2.78
2023-03-26T04:58:41.284Z,3.30
2023-03-26T05:03:48.357Z,3.15
2023-03-26T05:08:55.872Z,2.88
2023-03-26T05:14:28.364Z,3.35
2023-03-26T05:19:36.076Z,3.17
2023-03-26T05:24:41.773Z,3.13
2023-03-26T05:29:47.394Z,3.58
2023-03-26T05:34:56.349Z,3.63
2023-03-26T05:40:04.336Z,3.28
2023-03-26T05:45:22.521Z,3.08
2023-03-26T05:50:28.466Z,3.42
2023-03-26T05:55:38.945Z,3.40
2023-03-26T06:01:09.166Z,3.88
2023-03-26T06:06:37.287Z,4.03
2023-03-26T06:11:46.669Z,3.40
2023-03-26T06:16:51.313Z,3.70
2023-03-26T06:22:01.988Z,3.42
2023-03-26T06:27:14.929Z,4.07
2023-03-26T06:32:38.694Z,3.90
2023-03-26T06:37:56.093Z,3.40
2023-03-26T06:43:09.668Z,3.38
2023-03-26T06:48:29.426Z,4.05
2023-03-26T06:54:09.715Z,4.07
2023-03-26T06:59:44.252Z,3.55
2023-03-26T07:05:09.529Z,3.60
2023-03-26T07:10:33.187Z,4.38
2023-03-26T07:15:48.715Z,3.30
2023-03-26T07:21:18.234Z,3.20
2023-03-26T07:27:01.616Z,3.70
2023-03-26T07:32:29.178Z,2.92
2023-03-26T07:38:40.685Z,3.10
2023-03-26T07:44:21.829Z,2.70
2023-03-26T07:49:53.760Z,3.00
2023-03-26T07:55:21.860Z,2.83
2023-03-26T08:01:16.448Z,3.95
2023-03-26T08:06:40.955Z,2.88
2023-03-26T08:12:32.583Z,2.65
2023-03-26T08:17:59.717Z,3.47
2023-03-26T08:23:17.513Z,2.38
2023-03-26T08:29:03.258Z,3.25
2023-03-26T08:34:12.288Z,2.63
2023-03-26T08:39:20.627Z,3.60
2023-03-26T08:44:47.915Z,3.03
2023-03-26T08:50:31.615Z,2.90
2023-03-26T08:55:42.235Z,2.80
2023-03-26T09:01:52.313Z,2.88
2023-03-26T09:07:31.256Z,2.97
2023-03-26T09:13:06.453Z,2.70
2023-03-26T09:18:35.257Z,2.90
2023-03-26T09:24:20.933Z,2.30
2023-03-26T09:29:54.346Z,2.90
2023-03-26T09:35:41.816Z,2.20
2023-03-26T09:41:08.872Z,2.03
2023-03-26T09:46:33.806Z,1.85
2023-03-26T09:52:28.277Z,1.90
2023-03-26T09:57:53.687Z,2.45
2023-03-26T10:03:20.017Z,2.60
2023-03-26T10:09:11.845Z,2.63
2023-03-26T10:14:34.734Z,2.65
2023-03-26T10:20:30.605Z,3.03
2023-03-26T10:25:58.257Z,3.08
2023-03-26T10:31:22.889Z,5.30
2023-03-26T10:36:39.546Z,3.33
2023-03-26T10:42:24.420Z,2.55
2023-03-26T10:48:07.379Z,2.60
2023-03-26T10:53:42.359Z,2.60
2023-03-26T10:58:50.654Z,2.90
2023-03-26T11:03:59.091Z,3.47
2023-03-26T11:09:21.100Z,2.35
2023-03-26T11:14:48.783Z,2.13
2023-03-26T11:20:14.525Z,2.13
2023-03-26T11:25:56.677Z,2.55
2023-03-26T11:31:40.084Z,2.25
2023-03-26T11:36:52.683Z,2.50
2023-03-26T11:42:23.315Z,2.47
2023-03-26T11:47:38.354Z,3.00
2023-03-26T11:52:46.942Z,2.08
2023-03-26T11:58:04.508Z,2.75
2023-03-26T12:03:19.016Z,2.42
2023-03-26T12:08:34.749Z,2.13
2023-03-26T12:13:53.295Z,2.17
2023-03-26T12:19:27.297Z,1.80
2023-03-26T12:24:40.387Z,2.15
2023-03-26T12:29:50.650Z,2.00
2023-03-26T12:35:00.910Z,1.88
2023-03-26T12:40:39.880Z,1.73
2023-03-26T12:47:55.464Z,2.13
2023-03-26T12:51:52.707Z,1.85
2023-03-26T12:57:24.125Z,1.40
2023-03-26T13:03:04.753Z,1.65
2023-03-26T13:08:47.360Z,1.73
2023-03-26T13:14:10.687Z,1.92
2023-03-26T13:19:46.551Z,1.42
2023-03-26T13:25:09.313Z,2.42
2023-03-26T13:30:34.648Z,1.17
2023-03-26T13:36:23.059Z,1.50
2023-03-26T13:42:14.901Z,1.30
2023-03-26T13:47:25.187Z,1.60
2023-03-26T13:52:48.556Z,1.55
2023-03-26T13:58:15.644Z,1.17
2023-03-26T14:03:55.428Z,3.28
2023-03-26T14:09:14.263Z,1.47
2023-03-26T14:14:47.854Z,1.08
2023-03-26T14:19:52.445Z,1.67
2023-03-26T14:25:29.941Z,0.93
2023-03-26T14:30:55.027Z,1.13
2023-03-26T14:36:27.296Z,1.40
2023-03-26T14:42:11.696Z,1.02
2023-03-26T14:47:19.598Z,1.35
2023-03-26T14:52:52.600Z,1.38
2023-03-26T14:58:34.570Z,1.53
2023-03-26T15:04:03.745Z,1.70
2023-03-26T15:15:54.045Z,1.05
2023-03-26T15:21:19.538Z,1.00
2023-03-26T15:27:10.992Z,1.25
2023-03-26T15:32:56.914Z,1.50
2023-03-26T15:38:44.533Z,1.10
2023-03-26T15:44:23.956Z,1.00
2023-03-26T15:49:46.212Z,0.98
2023-03-26T15:55:13.091Z,1.10
2023-03-26T16:00:33.430Z,1.45
2023-03-26T16:06:20.721Z,1.20
2023-03-26T16:11:58.759Z,1.70
2023-03-26T16:17:29.511Z,1.60
2023-03-26T16:23:19.157Z,1.55
2023-03-26T16:28:34.491Z,1.77
2023-03-26T16:34:01.528Z,1.27
2023-03-26T16:39:45.565Z,1.30
2023-03-26T16:45:26.969Z,1.20
2023-03-26T16:51:09.648Z,1.30
2023-03-26T16:56:50.654Z,1.48
2023-03-26T17:02:20.257Z,1.30
2023-03-26T17:07:38.276Z,1.45
2023-03-26T17:12:54.229Z,2.13
2023-03-26T17:18:41.758Z,1.05
2023-03-26T17:24:22.945Z,1.25
2023-03-26T17:30:18.777Z,1.30
2023-03-26T17:35:41.759Z,7.20
2023-03-26T17:41:00.854Z,2.30
2023-03-26T17:46:21.101Z,2.85
2023-03-26T17:51:50.535Z,3.00
2023-03-26T17:56:56.040Z,3.10
2023-03-26T18:02:05.614Z,2.28
2023-03-26T18:07:20.872Z,8.85
2023-03-26T18:12:59.417Z,4.05
2023-03-26T18:19:02.018Z,2.35
2023-03-26T18:24:14.722Z,2.53
2023-03-26T18:29:40.961Z,2.22
2023-03-26T18:34:53.602Z,2.63
2023-03-26T18:40:22.066Z,3.00
2023-03-26T18:45:44.299Z,2.55
2023-03-26T18:51:16.850Z,2.60
2023-03-26T18:56:42.518Z,2.78
2023-03-26T19:01:54.302Z,2.30
2023-03-26T19:07:00.958Z,2.50
2023-03-26T19:12:32.484Z,2.60
2023-03-26T19:17:44.202Z,2.40
2023-03-26T19:22:51.143Z,2.92
2023-03-26T19:27:57.250Z,3.55
2023-03-26T19:33:16.546Z,2.80
2023-03-26T19:38:27.210Z,2.70
2023-03-26T19:43:35.405Z,2.72
2023-03-26T19:48:58.312Z,2.38
2023-03-26T19:54:23.225Z,2.40
2023-03-26T19:59:34.926Z,2.13
2023-03-26T20:04:39.358Z,1.80
2023-03-26T20:09:47.421Z,1.05
2023-03-26T20:15:02.828Z,1.10
2023-03-26T20:20:15.962Z,1.00
2023-03-26T20:25:30.265Z,1.40
2023-03-26T20:30:44.051Z,1.05
2023-03-26T20:40:55.287Z,1.05
2023-03-26T20:45:59.673Z,1.40
2023-03-26T20:51:06.397Z,1.33
2023-03-26T20:56:21.211Z,1.30
2023-03-26T21:01:25.161Z,1.52
2023-03-26T21:06:29.667Z,1.30
2023-03-26T21:12:04.548Z,1.30
2023-03-26T21:17:21.583Z,1.17
2023-03-26T21:22:56.416Z,1.00
2023-03-26T21:28:46.752Z,2.10
2023-03-26T21:33:55.427Z,1.63
2023-03-26T21:39:07.138Z,2.38
2023-03-26T21:44:15.015Z,1.35
2023-03-26T21:49:23.043Z,1.55
2023-03-26T21:54:33.291Z,1.05
2023-03-26T21:59:49.893Z,1.10
2023-03-26T22:05:06.887Z,1.33
2023-03-26T22:10:14.308Z,0.95
2023-03-26T22:15:22.752Z,1.15
2023-03-26T22:20:25.444Z,1.10
2023-03-26T22:25:51.037Z,1.35
2023-03-26T22:30:55.582Z,1.05
2023-03-26T22:36:22.011Z,0.93
2023-03-26T22:41:31.736Z,1.30
2023-03-26T22:51:55.222Z,0.82
2023-03-26T22:57:08.449Z,5.88
2023-03-26T23:02:19.298Z,1.80
2023-03-26T23:07:30.274Z,1.33
2023-03-26T23:12:36.712Z,1.00
2023-03-26T23:17:43.443Z,1.08
2023-03-26T23:22:54.751Z,1.10
2023-03-26T23:27:59.216Z,1.00
2023-03-26T23:33:07.480Z,1.27
2023-03-26T23:38:13.511Z,1.13
2023-03-26T23:43:29.207Z,0.95
2023-03-26T23:48:42.373Z,1.15
2023-03-26T23:53:49.343Z,0.97
2023-03-26T23:58:53.179Z,0.85
